Time;durP1;ratioP1;P1;durP2;ratioP2;P2;SDS_P1;SDS_P2;PMS_P1;PMS_P2;Temp;Humidity;BMP_temperature;BMP_pressure;BME280_temperature;BME280_humidity;BME280_pressure;Samples;Min_cycle;Max_cycle;Signal;HPM_P1;HPM_P2
2021/09/17 00:01:43;;;;;;;31.10;13.90;;;18.00;99.90;;;;;;5098705;28;20401;-89
2021/09/17 00:04:08;;;;;;;30.23;13.80;;;14.50;99.90;;;;;;5098890;28;20008;-89
2021/09/17 00:06:34;;;;;;;31.85;13.73;;;14.50;99.90;;;;;;5117330;28;20384;-89
2021/09/17 00:08:59;;;;;;;31.58;13.57;;;13.20;99.90;;;;;;5098894;28;20031;-89
2021/09/17 00:11:25;;;;;;;33.00;14.10;;;14.30;99.90;;;;;;5116433;28;20042;-89
2021/09/17 00:13:51;;;;;;;32.10;14.70;;;14.50;99.90;;;;;;5099072;28;20051;-88
2021/09/17 00:16:16;;;;;;;31.63;13.02;;;14.60;99.90;;;;;;5098484;28;20084;-89
2021/09/17 00:18:42;;;;;;;31.92;14.70;;;15.60;99.90;;;;;;5098991;28;20076;-89
2021/09/17 00:21:07;;;;;;;32.97;14.98;;;14.60;99.90;;;;;;5098658;28;20019;-89
2021/09/17 00:23:33;;;;;;;33.38;14.70;;;17.40;99.90;;;;;;5116858;28;20020;-87
2021/09/17 00:25:59;;;;;;;31.05;14.30;;;17.30;99.90;;;;;;5098599;28;20020;-87
2021/09/17 00:28:24;;;;;;;31.23;13.65;;;14.70;99.90;;;;;;5098708;28;20027;-88
2021/09/17 00:30:50;;;;;;;30.90;14.13;;;16.70;99.90;;;;;;5098384;28;20023;-87
2021/09/17 00:33:16;;;;;;;32.50;13.75;;;16.50;99.90;;;;;;5098063;28;20015;-88
2021/09/17 00:35:41;;;;;;;33.75;14.55;;;16.40;99.90;;;;;;5098667;28;20023;-87
2021/09/17 00:38:07;;;;;;;35.00;15.50;;;16.50;99.90;;;;;;5098464;28;20469;-88
2021/09/17 00:40:33;;;;;;;34.88;15.68;;;17.20;99.90;;;;;;5098310;28;20499;-89
2021/09/17 00:42:58;;;;;;;34.50;15.32;;;13.80;99.90;;;;;;5116238;28;20110;-89
2021/09/17 00:45:24;;;;;;;35.65;15.88;;;17.40;99.90;;;;;;5097823;28;20050;-88
2021/09/17 00:47:50;;;;;;;42.75;18.23;;;14.50;99.90;;;;;;5097909;28;20024;-89
2021/09/17 00:50:19;;;;;;;34.50;15.35;;;16.10;99.90;;;;;;5097951;28;20031;-89
2021/09/17 00:52:46;;;;;;;;;;;14.80;99.90;;;;;;5115766;28;20032;-89
2021/09/17 00:55:13;;;;;;;40.83;17.08;;;14.60;99.90;;;;;;5097333;28;19907;-89
2021/09/17 00:57:39;;;;;;;42.63;17.75;;;16.00;99.90;;;;;;5097956;28;20027;-89
2021/09/17 01:00:08;;;;;;;42.72;16.00;;;14.60;99.90;;;;;;5115943;28;20118;-89
2021/09/17 01:02:34;;;;;;;41.67;17.80;;;14.80;99.90;;;;;;5097961;28;20027;-89
2021/09/17 01:05:00;;;;;;;39.05;17.38;;;17.40;99.90;;;;;;5097402;28;20525;-89
2021/09/17 01:07:26;;;;;;;47.05;19.00;;;13.90;99.90;;;;;;5097814;28;20457;-89
2021/09/17 01:09:52;;;;;;;37.70;17.08;;;14.60;99.90;;;;;;5116248;28;20039;-87
2021/09/17 01:12:18;;;;;;;41.25;18.15;;;14.50;99.90;;;;;;5097322;28;20077;-87
2021/09/17 01:14:44;;;;;;;46.50;19.33;;;14.80;99.90;;;;;;5097615;28;20051;-88
2021/09/17 01:17:10;;;;;;;46.65;18.50;;;14.90;99.90;;;;;;5098182;28;20435;-88
2021/09/17 01:19:36;;;;;;;46.17;19.48;;;14.70;99.90;;;;;;5097995;28;20055;-88
2021/09/17 01:22:07;;;;;;;47.85;18.70;;;14.60;99.90;;;;;;5097246;28;20140;-88
2021/09/17 01:24:33;;;;;;;46.08;20.33;;;16.80;99.90;;;;;;5097997;28;20098;-88
2021/09/17 01:26:59;;;;;;;45.13;19.73;;;14.70;99.90;;;;;;5115822;28;20028;-89
2021/09/17 01:29:25;;;;;;;47.42;18.77;;;16.60;99.90;;;;;;5096933;28;20015;-89
2021/09/17 01:31:51;;;;;;;49.40;18.38;;;15.20;99.90;;;;;;5097703;28;20028;-89
2021/09/17 01:34:20;;;;;;;48.40;19.70;;;14.60;99.90;;;;;;5097139;28;20107;-88
2021/09/17 01:36:47;;;;;;;46.35;18.73;;;16.90;99.90;;;;;;5115277;28;20107;-88
2021/09/17 01:39:13;;;;;;;42.00;17.95;;;16.30;99.90;;;;;;5097790;28;20035;-89
2021/09/17 01:41:39;;;;;;;50.35;19.70;;;14.70;99.90;;;;;;5115256;28;20019;-88
2021/09/17 01:44:05;;;;;;;45.88;18.65;;;14.90;99.90;;;;;;5096723;28;20067;-88
2021/09/17 01:46:31;;;;;;;47.92;19.92;;;15.70;99.90;;;;;;5116014;28;20028;-88
2021/09/17 01:48:56;;;;;;;51.85;19.75;;;14.80;99.90;;;;;;5097061;28;20072;-88
2021/09/17 01:51:22;;;;;;;45.70;19.90;;;14.80;99.90;;;;;;5098128;28;20457;-88
2021/09/17 01:53:48;;;;;;;50.13;19.80;;;16.10;99.90;;;;;;5115033;28;20020;-89
2021/09/17 01:56:14;;;;;;;41.38;17.38;;;14.70;99.90;;;;;;5115264;28;20030;-88
2021/09/17 01:58:40;;;;;;;44.10;19.13;;;14.70;99.90;;;;;;5097900;28;20015;-88
2021/09/17 02:01:05;;;;;;;38.80;17.23;;;17.20;99.90;;;;;;5096716;28;20080;-88
2021/09/17 02:03:31;;;;;;;47.47;20.83;;;14.00;99.90;;;;;;5096841;28;20024;-88
2021/09/17 02:05:56;;;;;;;40.70;17.75;;;17.70;99.90;;;;;;5096641;28;20414;-88
2021/09/17 02:08:22;;;;;;;41.88;18.35;;;16.60;99.90;;;;;;5096625;28;20023;-88
2021/09/17 02:10:48;;;;;;;43.97;18.90;;;14.80;99.90;;;;;;5096268;28;20507;-88
2021/09/17 02:13:19;;;;;;;40.95;17.23;;;17.50;99.90;;;;;;5096146;28;20477;-88
2021/09/17 02:15:48;;;;;;;39.42;15.73;;;14.80;99.90;;;;;;5115130;28;20022;-88
2021/09/17 02:18:14;;;;;;;42.88;17.67;;;16.90;99.90;;;;;;5096695;28;20081;-88
2021/09/17 02:20:40;;;;;;;35.75;15.38;;;14.80;99.90;;;;;;5097034;28;20492;-88
2021/09/17 02:23:06;;;;;;;41.72;17.42;;;14.70;99.90;;;;;;5095810;28;20084;-88
2021/09/17 02:25:31;;;;;;;42.70;17.35;;;15.60;99.90;;;;;;5096936;28;20012;-86
2021/09/17 02:27:57;;;;;;;40.15;16.10;;;17.30;99.90;;;;;;5114798;28;20019;-86
2021/09/17 02:30:22;;;;;;;42.40;17.90;;;16.30;99.90;;;;;;5096474;28;20027;-86
2021/09/17 02:32:48;;;;;;;38.65;15.43;;;15.60;99.90;;;;;;5096475;28;20023;-86
2021/09/17 02:35:14;;;;;;;42.88;17.10;;;15.60;99.90;;;;;;5096976;28;20108;-88
2021/09/17 02:37:40;;;;;;;34.65;16.17;;;14.70;99.90;;;;;;5096949;28;20396;-88
2021/09/17 02:40:11;;;;;;;39.30;16.45;;;17.80;99.90;;;;;;5096144;28;20028;-88
2021/09/17 02:42:37;;;;;;;39.25;16.13;;;14.90;99.90;;;;;;5114377;28;20020;-89
2021/09/17 02:45:05;;;;;;;52.47;20.40;;;14.90;99.90;;;;;;5095392;28;20035;-88
2021/09/17 02:47:31;;;;;;;46.92;18.48;;;14.90;99.90;;;;;;5114146;28;20469;-88
2021/09/17 02:49:57;;;;;;;49.00;19.63;;;14.90;99.90;;;;;;5096118;28;20026;-88
2021/09/17 02:52:23;;;;;;;53.55;20.67;;;14.70;99.90;;;;;;5096537;28;20027;-87
2021/09/17 02:54:49;;;;;;;49.65;20.52;;;15.80;99.90;;;;;;5096388;28;20468;-88
2021/09/17 02:57:14;;;;;;;49.22;19.63;;;13.70;99.90;;;;;;5096788;28;20016;-88
2021/09/17 02:59:40;;;;;;;43.92;20.15;;;17.80;99.90;;;;;;5095802;28;20485;-88
2021/09/17 03:02:05;;;;;;;47.55;20.65;;;16.10;99.90;;;;;;5096176;28;20023;-88
2021/09/17 03:04:31;;;;;;;46.20;18.40;;;16.10;99.90;;;;;;5096345;28;20020;-88
2021/09/17 03:06:57;;;;;;;58.60;23.13;;;17.80;99.90;;;;;;5114869;28;20016;-88
2021/09/17 03:09:23;;;;;;;58.85;22.33;;;15.90;99.90;;;;;;5095563;28;20023;-87
2021/09/17 03:11:49;;;;;;;43.92;18.45;;;16.30;99.90;;;;;;5076350;28;20032;-88
2021/09/17 03:14:15;;;;;;;51.83;20.60;;;16.00;99.90;;;;;;5086339;28;20021;-88
2021/09/17 03:16:40;;;;;;;48.80;19.77;;;17.10;99.90;;;;;;5095617;28;20020;-88
2021/09/17 03:19:06;;;;;;;44.65;19.58;;;15.00;99.90;;;;;;5114957;28;20488;-87
2021/09/17 03:21:31;;;;;;;51.40;21.38;;;14.90;99.90;;;;;;5095538;28;20024;-86
2021/09/17 03:23:57;;;;;;;49.90;20.70;;;14.90;99.90;;;;;;5096246;28;20072;-88
2021/09/17 03:26:23;;;;;;;47.03;20.85;;;14.90;99.90;;;;;;5095613;28;20072;-88
2021/09/17 03:28:48;;;;;;;48.13;20.23;;;14.90;99.90;;;;;;5096623;28;20024;-88
2021/09/17 03:31:14;;;;;;;46.65;20.30;;;15.90;99.90;;;;;;5095753;28;20012;-88
2021/09/17 03:33:39;;;;;;;52.22;21.55;;;17.50;99.90;;;;;;5095763;28;20393;-88
2021/09/17 03:36:05;;;;;;;51.53;21.30;;;17.20;99.90;;;;;;5117789;28;20023;-88
2021/09/17 03:38:31;;;;;;;47.17;20.08;;;15.00;99.90;;;;;;5099345;28;20476;-89
2021/09/17 03:40:56;;;;;;;49.38;19.88;;;17.70;99.90;;;;;;5099000;28;20098;-88
2021/09/17 03:43:22;;;;;;;49.67;20.98;;;15.80;99.90;;;;;;5098877;28;20031;-88
2021/09/17 03:45:47;;;;;;;45.60;19.48;;;15.70;99.90;;;;;;5098931;28;20027;-88
2021/09/17 03:48:14;;;;;;;46.90;18.63;;;14.80;99.90;;;;;;5098876;28;20019;-88
2021/09/17 03:50:40;;;;;;;48.28;19.65;;;14.80;99.90;;;;;;5117097;28;20422;-88
2021/09/17 03:53:06;;;;;;;47.13;19.50;;;16.60;99.90;;;;;;5117435;28;20074;-88
2021/09/17 03:55:34;;;;;;;51.00;20.17;;;16.90;99.90;;;;;;5098506;28;20503;-88
2021/09/17 03:58:00;;;;;;;44.10;19.13;;;16.20;99.90;;;;;;5098855;28;20054;-89
2021/09/17 04:00:26;;;;;;;45.88;20.25;;;14.70;99.90;;;;;;5098474;28;20024;-88
2021/09/17 04:02:51;;;;;;;53.72;22.02;;;16.80;99.90;;;;;;5098943;28;20035;-88
2021/09/17 04:05:17;;;;;;;52.45;21.35;;;16.60;99.90;;;;;;5098830;28;20039;-88
2021/09/17 04:07:43;;;;;;;46.55;20.27;;;15.90;99.90;;;;;;5116877;28;20446;-88
2021/09/17 04:10:11;;;;;;;51.72;20.98;;;14.80;99.90;;;;;;5098789;28;20023;-88
2021/09/17 04:12:37;;;;;;;55.97;23.52;;;14.80;99.90;;;;;;5098637;28;20106;-88
2021/09/17 04:15:03;;;;;;;55.55;21.67;;;14.70;99.90;;;;;;5098554;28;20542;-88
2021/09/17 04:17:29;;;;;;;55.13;22.48;;;14.90;99.90;;;;;;5095789;27;20019;-88
2021/09/17 04:19:54;;;;;;;52.20;22.23;;;17.00;99.90;;;;;;5098379;28;20472;-88
2021/09/17 04:22:20;;;;;;;54.55;23.70;;;16.80;99.90;;;;;;5098168;28;20031;-88
2021/09/17 04:24:46;;;;;;;52.92;22.45;;;16.50;99.90;;;;;;5098446;28;20027;-87
2021/09/17 04:27:12;;;;;;;53.33;22.75;;;16.90;99.90;;;;;;5098024;28;20026;-87
2021/09/17 04:29:37;;;;;;;57.13;24.15;;;13.80;99.90;;;;;;5098240;28;20043;-88
2021/09/17 04:32:03;;;;;;;57.90;23.33;;;17.20;99.90;;;;;;5098595;28;20076;-88
2021/09/17 04:34:29;;;;;;;52.67;22.83;;;14.80;99.90;;;;;;5098485;28;20069;-88
2021/09/17 04:36:55;;;;;;;58.47;21.92;;;14.70;99.90;;;;;;5098029;28;20036;-88
2021/09/17 04:39:21;;;;;;;54.53;22.15;;;14.80;99.90;;;;;;5098172;28;20039;-88
2021/09/17 04:41:47;;;;;;;56.28;23.02;;;14.80;99.90;;;;;;5098068;28;20019;-88
2021/09/17 04:44:13;;;;;;;56.67;23.60;;;15.20;99.90;;;;;;5098736;28;20027;-88
2021/09/17 04:46:38;;;;;;;55.00;22.52;;;16.50;99.90;;;;;;5096668;28;20377;-88
2021/09/17 04:49:04;;;;;;;55.03;24.02;;;14.80;99.90;;;;;;5097710;28;20388;-88
2021/09/17 04:51:31;;;;;;;53.92;22.98;;;16.80;99.90;;;;;;5097975;28;20036;-90
2021/09/17 04:54:00;;;;;;;52.10;22.75;;;14.80;99.90;;;;;;5116650;28;20028;-87
2021/09/17 04:56:26;;;;;;;54.75;23.35;;;15.90;99.90;;;;;;5097127;28;20034;-86
2021/09/17 04:58:51;;;;;;;54.97;23.23;;;16.10;99.90;;;;;;5098135;28;20384;-88
2021/09/17 05:01:17;;;;;;;58.15;22.95;;;15.80;99.90;;;;;;5098001;28;20354;-89
2021/09/17 05:03:43;;;;;;;54.30;22.10;;;18.30;99.90;;;;;;5097758;28;20030;-89
2021/09/17 05:06:09;;;;;;;52.05;22.52;;;16.60;99.90;;;;;;5097109;28;20043;-89
2021/09/17 05:08:35;;;;;;;50.92;21.35;;;17.20;99.90;;;;;;5097501;28;20031;-89
2021/09/17 05:11:01;;;;;;;57.42;23.83;;;15.40;99.90;;;;;;5097065;28;20384;-89
2021/09/17 05:13:27;;;;;;;57.97;23.38;;;14.20;99.90;;;;;;5097443;28;20118;-89
2021/09/17 05:15:52;;;;;;;51.60;22.85;;;14.70;99.90;;;;;;5097297;28;20024;-89
2021/09/17 05:18:18;;;;;;;51.33;22.83;;;14.90;99.90;;;;;;5097575;28;20048;-87
2021/09/17 05:20:43;;;;;;;56.60;24.08;;;16.70;99.90;;;;;;5096990;28;20031;-89
2021/09/17 05:23:09;;;;;;;52.85;21.80;;;14.80;99.90;;;;;;5096946;28;20024;-89
2021/09/17 05:25:35;;;;;;;59.90;22.85;;;18.30;99.90;;;;;;5096813;28;20024;-89
2021/09/17 05:28:01;;;;;;;53.50;22.38;;;14.90;99.90;;;;;;5097261;28;20031;-88
2021/09/17 05:30:26;;;;;;;55.03;23.20;;;15.60;99.90;;;;;;5115531;28;20020;-89
2021/09/17 05:32:52;;;;;;;52.53;21.60;;;14.80;99.90;;;;;;5115427;28;20032;-89
2021/09/17 05:35:17;;;;;;;53.10;23.00;;;15.30;99.90;;;;;;5097519;28;20106;-89
2021/09/17 05:37:43;;;;;;;50.10;21.42;;;15.20;99.90;;;;;;5097920;28;20491;-89
2021/09/17 05:40:12;;;;;;;52.70;22.88;;;15.00;99.90;;;;;;5097087;28;20027;-88
2021/09/17 05:42:37;;;;;;;59.65;24.63;;;15.00;99.90;;;;;;5097518;28;20055;-89
2021/09/17 05:45:05;;;;;;;52.08;22.77;;;14.90;99.90;;;;;;5097456;28;20436;-88
2021/09/17 05:47:31;;;;;;;49.25;22.38;;;14.90;99.90;;;;;;5096875;28;20092;-89
2021/09/17 05:49:57;;;;;;;57.20;24.15;;;15.10;99.90;;;;;;5097414;28;20468;-88
2021/09/17 05:52:23;;;;;;;53.38;22.58;;;15.00;99.90;;;;;;5096772;28;20393;-89
2021/09/17 05:54:49;;;;;;;50.88;22.27;;;15.00;99.90;;;;;;5096588;28;20020;-89
2021/09/17 05:57:15;;;;;;;49.88;22.38;;;17.70;99.90;;;;;;5096405;28;20024;-89
2021/09/17 05:59:41;;;;;;;55.55;22.85;;;15.20;99.90;;;;;;5096853;28;20476;-89
2021/09/17 06:02:09;;;;;;;54.67;24.00;;;15.30;99.90;;;;;;5114411;28;20112;-90
2021/09/17 06:04:35;;;;;;;50.17;22.03;;;16.30;99.90;;;;;;5096331;28;20022;-90
2021/09/17 06:07:01;;;;;;;49.58;22.63;;;14.40;99.90;;;;;;5096226;28;20367;-90
2021/09/17 06:09:27;;;;;;;58.50;21.50;;;17.90;99.90;;;;;;5096717;28;20375;-90
2021/09/17 06:11:53;;;;;;;49.60;21.83;;;17.60;99.90;;;;;;5096923;28;20099;-89
2021/09/17 06:14:18;;;;;;;47.90;19.95;;;15.20;99.90;;;;;;5096670;28;20084;-90
2021/09/17 06:16:44;;;;;;;55.85;21.42;;;15.00;99.90;;;;;;5096419;28;20374;-90
2021/09/17 06:19:10;;;;;;;49.75;22.45;;;15.40;99.90;;;;;;5096983;28;20027;-89
2021/09/17 06:21:35;;;;;;;48.97;21.30;;;15.20;99.90;;;;;;5097357;28;20076;-89
2021/09/17 06:24:03;;;;;;;48.80;21.02;;;17.70;99.90;;;;;;5097320;28;20384;-89
2021/09/17 06:26:30;;;;;;;47.72;22.05;;;15.30;99.90;;;;;;5096821;28;20028;-89
2021/09/17 06:29:02;;;;;;;53.10;22.60;;;17.80;99.90;;;;;;5096474;28;20461;-89
2021/09/17 06:31:28;;;;;;;44.47;20.17;;;15.30;99.90;;;;;;5096627;28;20020;-90
2021/09/17 06:33:53;;;;;;;45.70;20.25;;;15.40;99.90;;;;;;5114711;28;20028;-89
2021/09/17 06:36:19;;;;;;;48.45;21.10;;;15.40;99.90;;;;;;5096326;28;20023;-89
2021/09/17 06:38:45;;;;;;;43.95;19.80;;;15.40;99.90;;;;;;5096588;28;20024;-89
2021/09/17 06:41:10;;;;;;;46.63;20.00;;;15.70;99.90;;;;;;5097138;28;20465;-89
2021/09/17 06:43:36;;;;;;;48.03;19.95;;;15.70;99.90;;;;;;5095836;28;20027;-89
2021/09/17 06:46:02;;;;;;;48.55;20.98;;;17.20;99.90;;;;;;5096619;28;20105;-89
2021/09/17 06:48:28;;;;;;;49.17;20.38;;;15.70;99.90;;;;;;5097979;28;20023;-89
2021/09/17 06:50:53;;;;;;;51.78;21.63;;;15.60;99.90;;;;;;5097720;28;20020;-89
2021/09/17 06:53:19;;;;;;;44.38;19.60;;;15.70;99.90;;;;;;5097802;28;20047;-89
2021/09/17 06:55:45;;;;;;;47.13;19.65;;;18.20;99.90;;;;;;5098085;28;20055;-89
2021/09/17 06:58:11;;;;;;;45.75;19.90;;;18.90;99.90;;;;;;5092168;28;20031;-89
2021/09/17 07:00:38;;;;;;;44.58;19.00;;;15.50;99.90;;;;;;5095221;28;20016;-89
2021/09/17 07:03:04;;;;;;;42.20;18.27;;;15.90;99.90;;;;;;5111825;28;20027;-89
2021/09/17 07:05:31;;;;;;;39.17;18.95;;;17.40;99.90;;;;;;5093388;28;20036;-90
2021/09/17 07:08:08;;;;;;;40.75;17.83;;;16.20;99.90;;;;;;5075440;28;20046;-89
2021/09/17 07:10:35;;;;;;;40.35;18.88;;;16.30;99.90;;;;;;5078427;28;20049;-90
2021/09/17 07:13:01;;;;;;;41.38;18.30;;;15.00;99.90;;;;;;5079217;28;20109;-90
2021/09/17 07:15:27;;;;;;;37.13;17.05;;;16.40;99.90;;;;;;5079527;28;20431;-88
2021/09/17 07:17:53;;;;;;;43.25;18.13;;;16.50;99.90;;;;;;5080179;28;20052;-88
2021/09/17 07:20:19;;;;;;;40.50;17.58;;;18.70;99.90;;;;;;5080273;28;20074;-90
2021/09/17 07:22:45;;;;;;;42.42;17.50;;;16.50;99.90;;;;;;5079230;28;20474;-90
2021/09/17 07:25:11;;;;;;;35.67;17.05;;;16.60;99.90;;;;;;5081161;28;20118;-90
2021/09/17 07:27:37;;;;;;;38.30;16.70;;;19.20;99.90;;;;;;5079893;28;20042;-90
2021/09/17 07:30:04;;;;;;;40.60;17.15;;;17.40;99.90;;;;;;5079610;28;20469;-90
2021/09/17 07:32:30;;;;;;;35.53;16.08;;;16.90;99.90;;;;;;5079575;28;20048;-89
2021/09/17 07:34:56;;;;;;;38.78;17.48;;;17.00;99.90;;;;;;5079722;28;20031;-91
2021/09/17 07:37:22;;;;;;;34.45;16.05;;;17.90;99.90;;;;;;5079325;28;20486;-90
2021/09/17 07:39:48;;;;;;;36.53;16.30;;;19.60;99.90;;;;;;5079504;28;20058;-91
2021/09/17 07:42:14;;;;;;;37.17;16.52;;;17.30;99.90;;;;;;5080256;28;20080;-90
2021/09/17 07:44:40;;;;;;;33.33;14.82;;;20.00;99.90;;;;;;5081412;28;20016;-90
2021/09/17 07:47:05;;;;;;;33.05;14.43;;;17.70;99.90;;;;;;5081233;28;20030;-91
2021/09/17 07:49:32;;;;;;;32.03;14.63;;;17.90;99.90;;;;;;5080745;28;20016;-91
2021/09/17 07:51:58;;;;;;;32.42;13.65;;;20.60;99.90;;;;;;5081237;28;20103;-88
2021/09/17 07:54:24;;;;;;;30.40;15.02;;;17.80;99.90;;;;;;5099104;28;20484;-89
2021/09/17 07:56:50;;;;;;;25.95;13.07;;;17.90;99.90;;;;;;5098804;28;20100;-89
2021/09/17 07:59:16;;;;;;;27.67;13.90;;;16.90;99.90;;;;;;5079068;28;20021;-88
2021/09/17 08:01:44;;;;;;;27.45;14.35;;;20.60;99.90;;;;;;5096702;28;20046;-88
2021/09/17 08:04:10;;;;;;;29.65;13.27;;;15.60;99.90;;;;;;5097054;28;20040;-89
2021/09/17 08:06:35;;;;;;;25.60;12.55;;;18.20;99.90;;;;;;5081397;28;20378;-88
2021/09/17 08:09:01;;;;;;;25.25;12.65;;;18.00;99.90;;;;;;5099959;28;20022;-89
2021/09/17 08:11:27;;;;;;;22.60;11.02;;;19.00;99.90;;;;;;5081501;28;20081;-88
2021/09/17 08:13:53;;;;;;;23.08;11.35;;;18.50;99.90;;;;;;5080848;28;20492;-89
2021/09/17 08:16:18;;;;;;;22.00;10.45;;;16.40;99.90;;;;;;5080432;28;20431;-89
2021/09/17 08:18:45;;;;;;;19.05;9.60;;;18.50;99.90;;;;;;5080884;28;20469;-89
2021/09/17 08:21:15;;;;;;;18.90;9.60;;;18.60;99.90;;;;;;5096761;28;20036;-88
2021/09/17 08:23:41;;;;;;;24.33;9.88;;;18.90;99.90;;;;;;5080924;28;20024;-89
2021/09/17 08:26:07;;;;;;;19.75;8.93;;;19.80;99.90;;;;;;5080818;28;20370;-89
2021/09/17 08:28:33;;;;;;;19.40;9.82;;;17.30;99.90;;;;;;5098089;28;20366;-89
2021/09/17 08:31:02;;;;;;;21.15;10.10;;;18.70;99.90;;;;;;5098409;28;20023;-89
2021/09/17 08:33:28;;;;;;;22.60;10.95;;;18.70;99.90;;;;;;5080390;28;20031;-89
2021/09/17 08:35:54;;;;;;;20.33;10.10;;;18.50;99.90;;;;;;5080191;28;20457;-89
2021/09/17 08:38:20;;;;;;;21.67;10.55;;;18.20;99.90;;;;;;5080861;28;20106;-89
2021/09/17 08:40:46;;;;;;;20.35;10.25;;;18.90;99.90;;;;;;5080211;28;20016;-89
2021/09/17 08:43:11;;;;;;;22.60;10.57;;;19.60;99.90;;;;;;5082593;28;20034;-89
2021/09/17 08:45:37;;;;;;;20.92;10.45;;;21.60;99.90;;;;;;5079829;28;20016;-90
2021/09/17 08:48:03;;;;;;;20.80;9.68;;;20.60;99.90;;;;;;5080099;28;20024;-90
2021/09/17 08:50:30;;;;;;;23.65;11.15;;;19.10;99.90;;;;;;5080730;28;20382;-91
2021/09/17 08:52:56;;;;;;;18.17;10.13;;;19.20;99.90;;;;;;5079783;28;20020;-91
2021/09/17 08:55:22;;;;;;;27.08;11.15;;;21.40;99.90;;;;;;5097558;28;20024;-91
2021/09/17 08:57:49;;;;;;;22.40;10.52;;;18.50;99.90;;;;;;5097792;28;20077;-91
2021/09/17 09:00:38;;;;;;;23.85;10.63;;;19.60;99.90;;;;;;5097588;28;20024;-91
2021/09/17 09:03:04;;;;;;;21.33;9.98;;;19.70;99.90;;;;;;5078916;28;20098;-90
2021/09/17 09:05:35;;;;;;;21.13;10.00;;;19.30;99.90;;;;;;5078815;28;20036;-91
2021/09/17 09:08:02;;;;;;;21.98;10.48;;;19.20;99.90;;;;;;5078937;28;20020;-90
2021/09/17 09:10:28;;;;;;;21.90;9.73;;;19.40;99.90;;;;;;5080133;28;20032;-90
2021/09/17 09:12:58;;;;;;;22.40;9.48;;;22.10;99.90;;;;;;5078993;28;20462;-89
2021/09/17 09:15:30;;;;;;;21.20;10.10;;;22.40;99.90;;;;;;5079722;28;20028;-89
2021/09/17 09:17:57;;;;;;;17.80;9.80;;;20.60;99.90;;;;;;5080022;28;20023;-88
2021/09/17 09:20:30;;;;;;;20.20;10.10;;;19.50;99.90;;;;;;5097194;28;20388;-88
2021/09/17 09:23:10;;;;;;;19.38;9.35;;;19.60;99.90;;;;;;5097711;28;20388;-89
2021/09/17 09:25:53;;;;;;;19.45;8.02;;;20.40;99.90;;;;;;5078042;28;20111;-89
2021/09/17 09:28:39;;;;;;;17.17;8.00;;;19.80;99.90;;;;;;5078912;28;20400;-89
2021/09/17 09:31:16;;;;;;;15.73;8.05;;;20.00;99.90;;;;;;5078900;28;20477;-89
2021/09/17 09:33:47;;;;;;;15.77;6.88;;;21.70;99.90;;;;;;5079506;28;20028;-89
2021/09/17 09:36:15;;;;;;;23.70;8.20;;;19.70;99.90;;;;;;5079226;28;20540;-90
2021/09/17 09:38:51;;;;;;;19.50;8.52;;;19.40;99.90;;;;;;5097403;28;20115;-90
2021/09/17 09:41:22;;;;;;;16.88;8.20;;;20.20;99.90;;;;;;5078833;28;20032;-89
2021/09/17 09:44:10;;;;;;;18.77;9.82;;;20.30;99.90;;;;;;5078812;28;20124;-91
2021/09/17 09:46:43;;;;;;;19.17;9.77;;;20.20;99.90;;;;;;5079297;28;20043;-91
2021/09/17 09:49:25;;;;;;;23.67;10.48;;;20.30;99.90;;;;;;5078589;28;20024;-90
2021/09/17 09:51:59;;;;;;;23.98;10.25;;;20.10;99.90;;;;;;5078698;28;20044;-89
2021/09/17 09:54:27;;;;;;;20.95;10.25;;;22.70;99.90;;;;;;5078381;28;20110;-88
2021/09/17 09:56:54;;;;;;;20.38;9.32;;;18.60;99.90;;;;;;5096700;28;20072;-89
2021/09/17 09:59:33;;;;;;;22.73;11.43;;;20.50;99.90;;;;;;5078620;28;20111;-89
2021/09/17 10:02:04;;;;;;;24.92;11.35;;;20.70;99.90;;;;;;5078573;28;20016;-89
2021/09/17 10:04:31;;;;;;;25.50;11.75;;;20.80;99.90;;;;;;5078124;28;20085;-90
2021/09/17 10:07:09;;;;;;;20.88;10.63;;;19.00;99.90;;;;;;5096859;28;20406;-91
2021/09/17 10:09:37;;;;;;;23.53;11.57;;;20.90;99.90;;;;;;5077102;28;20038;-91
2021/09/17 10:12:04;;;;;;;28.27;11.73;;;22.90;99.90;;;;;;5094732;28;20020;-91
2021/09/17 10:14:30;;;;;;;23.33;11.60;;;19.00;99.90;;;;;;5094390;28;20012;-91
2021/09/17 10:17:02;;;;;;;18.48;10.07;;;24.20;99.90;;;;;;5079733;28;20023;-89
2021/09/17 10:19:28;;;;;;;22.25;10.32;;;22.20;99.90;;;;;;5078054;28;20024;-89
2021/09/17 10:21:55;;;;;;;18.55;9.98;;;24.60;99.90;;;;;;5077944;28;20393;-89
2021/09/17 10:24:27;;;;;;;20.38;9.38;;;22.30;99.90;;;;;;5096520;28;20050;-88
2021/09/17 10:27:00;;;;;;;16.17;8.88;;;23.90;99.90;;;;;;5078009;28;20027;-88
2021/09/17 10:29:41;;;;;;;23.08;9.90;;;22.60;99.90;;;;;;5096148;28;20024;-88
2021/09/17 10:32:33;;;;;;;21.30;10.02;;;22.60;99.90;;;;;;5096536;28;20016;-89
2021/09/17 10:35:02;;;;;;;17.05;9.25;;;22.60;99.90;;;;;;5078420;28;20019;-89
2021/09/17 10:37:57;;;;;;;20.90;11.10;;;23.00;99.90;;;;;;5079698;28;20035;-89
2021/09/17 10:40:42;;;;;;;21.98;10.65;;;22.50;99.90;;;;;;5078320;28;20024;-88
2021/09/17 10:43:11;;;;;;;27.08;11.38;;;22.70;99.90;;;;;;5077498;28;20036;-89
2021/09/17 10:45:37;;;;;;;;;;;22.90;99.90;;;;;;5083241;28;20473;-89
2021/09/17 10:48:04;;;;;;;22.45;10.00;;;23.80;99.90;;;;;;5082556;28;19911;-88
2021/09/17 10:50:56;;;;;;;20.40;10.25;;;22.70;99.90;;;;;;5082364;28;20023;-88
2021/09/17 10:53:40;;;;;;;21.63;9.23;;;22.60;99.90;;;;;;5082647;28;20397;-88
2021/09/17 10:56:11;;;;;;;19.23;9.30;;;24.10;99.90;;;;;;5082048;28;20505;-88
2021/09/17 10:59:00;;;;;;;20.88;9.98;;;22.70;99.90;;;;;;5083207;28;20462;-88
2021/09/17 11:01:50;;;;;;;20.40;10.98;;;25.30;99.90;;;;;;5081752;28;20036;-89
2021/09/17 11:04:20;;;;;;;19.50;9.25;;;22.80;99.90;;;;;;5082036;28;20028;-87
2021/09/17 11:06:46;;;;;;;19.95;8.80;;;23.70;99.90;;;;;;5081613;28;20027;-87
2021/09/17 11:09:12;;;;;;;21.75;8.85;;;22.20;99.90;;;;;;5099914;28;20012;-88
2021/09/17 11:11:41;;;;;;;21.88;11.00;;;24.30;99.90;;;;;;5081667;28;20058;-88
2021/09/17 11:14:21;;;;;;;26.73;10.68;;;24.60;99.90;;;;;;5081678;28;20119;-88
2021/09/17 11:16:54;;;;;;;19.40;10.02;;;23.40;99.90;;;;;;5081666;28;20031;-87
2021/09/17 11:19:20;;;;;;;24.42;12.27;;;23.40;99.90;;;;;;5082789;28;20024;-88
2021/09/17 11:21:48;;;;;;;23.85;11.45;;;23.20;99.90;;;;;;5100173;28;20027;-88
2021/09/17 11:24:26;;;;;;;27.52;13.15;;;23.70;99.90;;;;;;5081675;28;20032;-87
2021/09/17 11:26:59;;;;;;;27.17;13.02;;;23.60;99.90;;;;;;5081497;28;20024;-89
2021/09/17 11:29:29;;;;;;;25.77;10.20;;;23.60;99.90;;;;;;5080565;28;20077;-88
2021/09/17 11:31:59;;;;;;;24.23;11.45;;;23.60;99.90;;;;;;5081002;28;20024;-88
2021/09/17 11:34:28;;;;;;;25.65;13.05;;;23.30;99.90;;;;;;5080899;28;20027;-88
2021/09/17 11:37:00;;;;;;;22.08;11.25;;;23.10;99.90;;;;;;5081335;28;20107;-88
2021/09/17 11:39:37;;;;;;;24.63;13.02;;;23.20;99.90;;;;;;5080865;28;20020;-88
2021/09/17 11:42:05;;;;;;;24.45;11.95;;;24.00;99.90;;;;;;5081081;28;20028;-88
2021/09/17 11:44:49;;;;;;;23.35;13.05;;;23.80;99.90;;;;;;5080948;28;20020;-88
2021/09/17 11:47:23;;;;;;;21.60;10.88;;;24.00;99.90;;;;;;5099608;28;20032;-88
2021/09/17 11:49:53;;;;;;;26.15;13.00;;;24.40;99.90;;;;;;5080732;28;20012;-88
2021/09/17 11:52:20;;;;;;;22.92;9.80;;;24.70;99.90;;;;;;5081464;28;20111;-88
2021/09/17 11:55:07;;;;;;;16.33;8.48;;;24.40;99.90;;;;;;5080209;28;20024;-88
2021/09/17 11:57:36;;;;;;;16.33;8.25;;;23.70;99.90;;;;;;5080790;28;20032;-88
2021/09/17 12:00:19;;;;;;;17.45;8.55;;;25.90;99.90;;;;;;5099174;28;20078;-88
2021/09/17 12:02:46;;;;;;;19.40;8.25;;;23.40;99.90;;;;;;5080412;28;20114;-88
2021/09/17 12:05:18;;;;;;;15.47;8.47;;;23.90;99.90;;;;;;5080072;28;20020;-88
2021/09/17 12:07:46;;;;;;;16.95;7.45;;;23.00;99.90;;;;;;5079963;28;20027;-88
2021/09/17 12:10:14;;;;;;;19.77;9.70;;;25.60;99.90;;;;;;5078984;28;20107;-88
2021/09/17 12:12:43;;;;;;;21.98;8.55;;;22.90;99.90;;;;;;5078455;28;20107;-88
2021/09/17 12:15:10;;;;;;;20.50;8.98;;;24.10;99.90;;;;;;5079680;28;20366;-88
2021/09/17 12:17:57;;;;;;;15.45;7.80;;;22.40;99.90;;;;;;5082064;28;20024;-88
2021/09/17 12:20:36;;;;;;;14.63;7.32;;;22.10;99.90;;;;;;5080498;28;20028;-88
2021/09/17 12:23:02;;;;;;;19.38;8.93;;;23.70;99.90;;;;;;5080226;28;20035;-88
2021/09/17 12:25:30;;;;;;;20.02;9.57;;;22.30;99.90;;;;;;5080896;28;20526;-88
2021/09/17 12:28:05;;;;;;;24.58;12.70;;;23.40;99.90;;;;;;5080155;28;20027;-88
2021/09/17 12:30:35;;;;;;;28.77;13.40;;;21.90;99.90;;;;;;5080417;28;20032;-88
2021/09/17 12:33:08;;;;;;;23.83;11.98;;;22.40;99.90;;;;;;5079724;28;20028;-88